createdAt,value
2022-09-26T00:00:23.480Z,94.70
2022-09-26T00:01:23.568Z,94.70
2022-09-26T00:02:23.494Z,94.70
2022-09-26T00:03:23.435Z,94.70
2022-09-26T00:04:25.273Z,94.80
2022-09-26T00:05:23.415Z,94.70
2022-09-26T00:06:23.407Z,94.49
2022-09-26T00:07:23.395Z,94.49
2022-09-26T00:08:23.390Z,94.49
2022-09-26T00:09:23.359Z,94.39
2022-09-26T00:10:23.358Z,94.59
2022-09-26T00:11:23.361Z,94.59
2022-09-26T00:12:23.335Z,94.70
2022-09-26T00:13:23.343Z,94.59
2022-09-26T00:14:23.299Z,94.59
2022-09-26T00:15:23.304Z,94.59
2022-09-26T00:16:23.344Z,94.59
2022-09-26T00:17:23.287Z,94.49
2022-09-26T00:18:23.261Z,94.49
2022-09-26T00:19:23.273Z,94.59
2022-09-26T00:20:23.237Z,94.70
2022-09-26T00:21:23.240Z,94.70
2022-09-26T00:22:23.219Z,94.70
2022-09-26T00:23:23.221Z,94.59
2022-09-26T00:24:23.208Z,94.70
2022-09-26T00:25:23.199Z,94.70
2022-09-26T00:26:23.169Z,94.70
2022-09-26T00:27:23.539Z,94.80
2022-09-26T00:28:23.150Z,94.90
2022-09-26T00:29:23.177Z,95.00
2022-09-26T00:30:23.180Z,95.00
2022-09-26T00:31:23.184Z,94.90
2022-09-26T00:32:23.109Z,95.00
2022-09-26T00:33:23.109Z,95.00
2022-09-26T00:34:23.110Z,95.10
2022-09-26T00:35:23.072Z,95.21
2022-09-26T00:36:29.830Z,95.10
2022-09-26T00:37:24.048Z,95.31
2022-09-26T00:38:23.032Z,95.21
2022-09-26T00:39:23.029Z,95.21
2022-09-26T00:40:23.087Z,95.31
2022-09-26T00:41:23.011Z,95.41
2022-09-26T00:42:23.006Z,95.41
2022-09-26T00:43:23.001Z,95.51
2022-09-26T00:44:22.968Z,95.87
2022-09-26T00:45:22.980Z,95.87
2022-09-26T00:46:23.068Z,95.76
2022-09-26T00:47:22.940Z,95.87
2022-09-26T00:48:22.930Z,95.82
2022-09-26T00:49:22.940Z,95.72
2022-09-26T00:50:22.909Z,95.72
2022-09-26T00:51:22.925Z,95.82
2022-09-26T00:52:22.881Z,95.72
2022-09-26T00:53:22.881Z,95.62
2022-09-26T00:54:22.865Z,95.51
2022-09-26T00:55:22.839Z,95.41
2022-09-26T00:56:22.860Z,95.56
2022-09-26T00:57:22.836Z,95.56
2022-09-26T00:58:22.813Z,95.56
2022-09-26T00:59:22.809Z,95.66
2022-09-26T01:00:22.809Z,95.66
2022-09-26T01:01:22.894Z,95.76
2022-09-26T01:02:22.846Z,95.87
2022-09-26T01:03:22.762Z,95.66
2022-09-26T01:04:22.754Z,95.66
2022-09-26T01:05:22.741Z,95.76
2022-09-26T01:06:22.726Z,95.76
2022-09-26T01:07:22.742Z,95.66
2022-09-26T01:08:22.715Z,95.76
2022-09-26T01:09:22.712Z,95.62
2022-09-26T01:10:22.676Z,95.56
2022-09-26T01:11:22.681Z,95.66
2022-09-26T01:12:22.661Z,95.66
2022-09-26T01:13:22.653Z,95.56
2022-09-26T01:14:22.624Z,95.66
2022-09-26T01:15:22.633Z,95.56
2022-09-26T01:16:22.665Z,95.56
2022-09-26T01:17:22.613Z,95.46
2022-09-26T01:18:22.613Z,95.46
2022-09-26T01:19:22.583Z,95.56
2022-09-26T01:20:22.576Z,95.56
2022-09-26T01:21:22.561Z,95.66
2022-09-26T01:22:22.548Z,95.76
2022-09-26T01:23:22.557Z,95.87
2022-09-26T01:24:22.518Z,95.72
2022-09-26T01:25:22.545Z,95.72
2022-09-26T01:26:22.513Z,95.62
2022-09-26T01:27:22.505Z,95.72
2022-09-26T01:28:22.505Z,95.82
2022-09-26T01:29:22.491Z,95.72
2022-09-26T01:30:22.494Z,95.82
2022-09-26T01:31:22.481Z,95.82
2022-09-26T01:32:22.438Z,95.92
2022-09-26T01:33:22.442Z,95.92
2022-09-26T01:34:22.427Z,95.82
2022-09-26T01:35:22.410Z,95.82
2022-09-26T01:36:22.381Z,95.82
2022-09-26T01:37:22.385Z,95.82
2022-09-26T01:38:22.366Z,95.82
2022-09-26T01:39:22.361Z,95.82
2022-09-26T01:40:22.415Z,95.82
2022-09-26T01:41:22.343Z,95.92
2022-09-26T01:42:22.314Z,95.82
2022-09-26T01:43:22.325Z,95.82
2022-09-26T01:44:22.302Z,95.92
2022-09-26T01:45:22.294Z,95.82
2022-09-26T01:46:22.334Z,96.03
2022-09-26T01:47:22.278Z,95.62
2022-09-26T01:48:22.255Z,95.51
2022-09-26T01:49:22.245Z,95.31
2022-09-26T01:50:22.236Z,95.31
2022-09-26T01:51:22.234Z,95.41
2022-09-26T01:52:22.205Z,95.21
2022-09-26T01:53:22.214Z,94.90
2022-09-26T01:54:22.174Z,94.90
2022-09-26T01:55:22.193Z,94.70
2022-09-26T01:56:22.173Z,94.59
2022-09-26T01:57:22.170Z,94.70
2022-09-26T01:58:22.166Z,94.70
2022-09-26T01:59:22.133Z,94.59
2022-09-26T02:00:22.117Z,94.80
2022-09-26T02:01:22.208Z,94.80
2022-09-26T02:02:22.189Z,94.70
2022-09-26T02:03:22.095Z,94.80
2022-09-26T02:04:22.074Z,94.70
2022-09-26T02:05:22.074Z,94.49
2022-09-26T02:06:22.055Z,94.59
2022-09-26T02:07:22.054Z,94.59
2022-09-26T02:08:22.037Z,94.39
2022-09-26T02:09:22.026Z,94.39
2022-09-26T02:10:22.015Z,94.29
2022-09-26T02:11:22.018Z,94.18
2022-09-26T02:12:21.997Z,94.08
2022-09-26T02:13:21.995Z,94.08
2022-09-26T02:14:21.966Z,93.98
2022-09-26T02:15:21.971Z,94.08
2022-09-26T02:16:22.102Z,93.98
2022-09-26T02:17:21.939Z,93.93
2022-09-26T02:18:21.919Z,93.88
2022-09-26T02:19:21.927Z,93.93
2022-09-26T02:20:21.903Z,94.18
2022-09-26T02:21:21.886Z,93.88
2022-09-26T02:22:21.886Z,93.84
2022-09-26T02:23:21.862Z,94.04
2022-09-26T02:24:21.855Z,93.88
2022-09-26T02:25:21.846Z,93.84
2022-09-26T02:26:21.827Z,93.93
2022-09-26T02:27:21.822Z,93.84
2022-09-26T02:28:21.826Z,93.73
2022-09-26T02:29:21.801Z,93.77
2022-09-26T02:30:21.787Z,93.73
2022-09-26T02:31:21.834Z,94.08
2022-09-26T02:32:21.758Z,93.88
2022-09-26T02:33:21.779Z,93.93
2022-09-26T02:34:21.739Z,94.14
2022-09-26T02:35:21.739Z,93.98
2022-09-26T02:36:21.801Z,93.77
2022-09-26T02:37:21.706Z,93.88
2022-09-26T02:38:21.707Z,93.98
2022-09-26T02:39:21.686Z,93.77
2022-09-26T02:40:21.699Z,93.77
2022-09-26T02:41:21.674Z,93.88
2022-09-26T02:42:21.648Z,94.18
2022-09-26T02:43:21.667Z,94.08
2022-09-26T02:44:21.634Z,94.08
2022-09-26T02:45:21.663Z,94.08
2022-09-26T02:46:21.684Z,93.98
2022-09-26T02:47:21.598Z,93.98
2022-09-26T02:48:21.578Z,93.98
2022-09-26T02:49:21.585Z,94.04
2022-09-26T02:50:21.568Z,94.04
2022-09-26T02:51:21.562Z,93.93
2022-09-26T02:52:21.539Z,94.04
2022-09-26T02:53:21.528Z,94.04
2022-09-26T02:54:21.511Z,94.04
2022-09-26T02:55:21.517Z,94.04
2022-09-26T02:56:21.521Z,94.04
2022-09-26T02:57:21.499Z,93.93
2022-09-26T02:58:21.487Z,93.93
2022-09-26T02:59:21.474Z,93.93
2022-09-26T03:00:21.449Z,94.04
2022-09-26T03:01:21.562Z,94.04
2022-09-26T03:02:21.427Z,94.04
2022-09-26T03:03:21.556Z,94.14
2022-09-26T03:04:21.456Z,94.04
2022-09-26T03:05:21.398Z,93.93
2022-09-26T03:06:21.380Z,93.73
2022-09-26T03:07:21.391Z,93.84
2022-09-26T03:08:21.359Z,94.04
2022-09-26T03:09:21.360Z,93.84
2022-09-26T03:10:21.331Z,93.73
2022-09-26T03:11:21.331Z,93.73
2022-09-26T03:12:21.331Z,94.04
2022-09-26T03:13:21.313Z,94.04
2022-09-26T03:14:21.300Z,94.29
2022-09-26T03:15:21.292Z,94.14
2022-09-26T03:16:21.328Z,93.98
2022-09-26T03:17:21.299Z,94.18
2022-09-26T03:18:21.240Z,94.18
2022-09-26T03:19:21.239Z,94.18
2022-09-26T03:20:21.239Z,94.08
2022-09-26T03:21:21.211Z,94.08
2022-09-26T03:22:21.199Z,94.18
2022-09-26T03:23:21.203Z,94.08
2022-09-26T03:24:21.172Z,94.18
2022-09-26T03:25:21.173Z,94.18
2022-09-26T03:26:21.179Z,94.08
2022-09-26T03:27:21.151Z,94.08
2022-09-26T03:28:21.139Z,93.98
2022-09-26T03:29:21.140Z,93.98
2022-09-26T03:30:21.121Z,93.98
2022-09-26T03:31:21.158Z,94.08
2022-09-26T03:32:21.081Z,94.29
2022-09-26T03:33:21.081Z,93.98
2022-09-26T03:34:21.068Z,93.77
2022-09-26T03:35:21.077Z,93.88
2022-09-26T03:36:21.063Z,93.88
2022-09-26T03:37:21.033Z,93.67
2022-09-26T03:38:21.044Z,93.67
2022-09-26T03:39:21.016Z,93.77
2022-09-26T03:40:21.045Z,93.88
2022-09-26T03:41:20.994Z,93.88
2022-09-26T03:42:20.993Z,93.98
2022-09-26T03:43:20.980Z,93.98
2022-09-26T03:44:20.953Z,93.98
2022-09-26T03:45:20.987Z,93.98
2022-09-26T03:46:20.921Z,93.98
2022-09-26T03:47:21.112Z,93.98
2022-09-26T03:48:20.912Z,93.98
2022-09-26T03:49:20.903Z,94.08
2022-09-26T03:50:20.884Z,93.98
2022-09-26T03:51:20.873Z,93.88
2022-09-26T03:52:21.111Z,93.88
2022-09-26T03:53:20.864Z,93.77
2022-09-26T03:54:20.840Z,93.98
2022-09-26T03:55:20.843Z,93.98
2022-09-26T03:56:20.812Z,94.08
2022-09-26T03:57:20.812Z,93.98
2022-09-26T03:58:20.813Z,93.98
2022-09-26T03:59:20.794Z,93.98
2022-09-26T04:00:20.764Z,93.88
2022-09-26T04:01:20.835Z,93.88
2022-09-26T04:02:20.821Z,93.98
2022-09-26T04:03:20.785Z,93.88
2022-09-26T04:04:20.734Z,93.77
2022-09-26T04:05:20.724Z,93.98
2022-09-26T04:06:21.113Z,93.88
2022-09-26T04:07:20.712Z,93.88
2022-09-26T04:08:20.712Z,93.98
2022-09-26T04:09:20.854Z,94.08
2022-09-26T04:10:20.661Z,93.98
2022-09-26T04:11:20.661Z,94.08
2022-09-26T04:12:20.645Z,94.08
2022-09-26T04:13:49.559Z,94.08
2022-09-26T04:14:21.612Z,94.08
2022-09-26T04:15:20.613Z,93.98
2022-09-26T04:16:20.820Z,94.08
2022-09-26T04:17:20.585Z,94.08
2022-09-26T04:18:20.572Z,94.08
2022-09-26T04:19:20.585Z,94.08
2022-09-26T04:20:20.547Z,94.29
2022-09-26T04:21:20.552Z,94.29
2022-09-26T04:22:20.532Z,94.49
2022-09-26T04:23:20.526Z,94.29
2022-09-26T04:24:20.514Z,94.18
2022-09-26T04:25:20.504Z,94.29
2022-09-26T04:26:23.762Z,94.29
2022-09-26T04:27:20.493Z,94.39
2022-09-26T04:28:20.474Z,94.39
2022-09-26T04:29:20.445Z,94.59
2022-09-26T04:30:20.445Z,94.59
2022-09-26T04:31:20.485Z,94.59
2022-09-26T04:32:20.424Z,94.70
2022-09-26T04:33:20.413Z,94.59
2022-09-26T04:34:24.818Z,94.49
2022-09-26T04:35:21.376Z,94.49
2022-09-26T04:36:20.377Z,94.49
2022-09-26T04:37:20.377Z,94.59
2022-09-26T04:38:20.364Z,94.59
2022-09-26T04:39:20.344Z,94.70
2022-09-26T04:40:20.360Z,94.70
2022-09-26T04:41:20.317Z,94.70
2022-09-26T04:42:20.326Z,94.90
2022-09-26T04:43:20.298Z,94.90
2022-09-26T04:44:21.291Z,95.00
2022-09-26T04:45:27.631Z,95.10
2022-09-26T04:46:22.856Z,95.21
2022-09-26T04:47:20.269Z,95.10
2022-09-26T04:48:21.937Z,95.10
2022-09-26T04:49:20.231Z,95.21
2022-09-26T04:50:20.229Z,95.31
2022-09-26T04:51:20.316Z,95.21
2022-09-26T04:52:20.246Z,95.21
2022-09-26T04:53:20.265Z,95.41
2022-09-26T04:54:20.238Z,95.41
2022-09-26T04:55:20.237Z,95.31
2022-09-26T04:56:20.341Z,95.41
2022-09-26T04:57:20.277Z,95.41
2022-09-26T04:58:20.356Z,95.41
2022-09-26T04:59:20.270Z,95.41
2022-09-26T05:00:20.278Z,95.41
2022-09-26T05:01:20.448Z,95.41
2022-09-26T05:02:20.419Z,95.41
2022-09-26T05:03:20.338Z,95.41
2022-09-26T05:04:25.256Z,95.62
2022-09-26T05:05:21.777Z,95.41
2022-09-26T05:06:20.307Z,95.62
2022-09-26T05:07:20.059Z,95.47
2022-09-26T05:08:20.263Z,95.57
2022-09-26T05:09:20.014Z,95.67
2022-09-26T05:10:20.134Z,95.57
2022-09-26T05:11:20.298Z,95.57
2022-09-26T05:12:19.978Z,95.57
2022-09-26T05:13:19.977Z,95.57
2022-09-26T05:14:19.980Z,95.67
2022-09-26T05:15:19.938Z,95.57
2022-09-26T05:16:20.019Z,95.57
2022-09-26T05:17:19.918Z,95.67
2022-09-26T05:18:19.909Z,95.78
2022-09-26T05:19:19.910Z,95.67
2022-09-26T05:20:19.910Z,95.67
2022-09-26T05:21:19.881Z,95.67
2022-09-26T05:22:19.869Z,95.67
2022-09-26T05:23:19.859Z,95.78
2022-09-26T05:24:19.849Z,95.67
2022-09-26T05:25:19.886Z,95.78
2022-09-26T05:26:19.858Z,95.78
2022-09-26T05:27:19.811Z,95.88
2022-09-26T05:28:19.803Z,95.98
2022-09-26T05:29:19.854Z,95.98
2022-09-26T05:30:19.790Z,95.88
2022-09-26T05:31:19.840Z,95.98
2022-09-26T05:32:19.790Z,95.88
2022-09-26T05:33:19.750Z,95.78
2022-09-26T05:34:20.424Z,95.78
2022-09-26T05:35:19.710Z,95.88
2022-09-26T05:36:19.740Z,95.88
2022-09-26T05:37:19.703Z,95.78
2022-09-26T05:38:19.690Z,95.78
2022-09-26T05:39:19.672Z,95.78
2022-09-26T05:40:19.679Z,95.78
2022-09-26T05:41:19.670Z,95.98
2022-09-26T05:42:19.663Z,96.08
2022-09-26T05:43:19.634Z,96.08
2022-09-26T05:44:19.622Z,96.08
2022-09-26T05:45:19.614Z,95.98
2022-09-26T05:46:19.663Z,96.08
2022-09-26T05:47:19.602Z,96.19
2022-09-26T05:48:19.586Z,96.08
2022-09-26T05:49:19.563Z,96.19
2022-09-26T05:50:19.551Z,96.29
2022-09-26T05:51:19.573Z,96.19
2022-09-26T05:52:19.555Z,96.08
2022-09-26T05:53:19.506Z,96.19
2022-09-26T05:54:19.507Z,96.29
2022-09-26T05:55:19.484Z,96.39
2022-09-26T05:56:19.834Z,96.39
2022-09-26T05:57:19.495Z,96.39
2022-09-26T05:58:19.511Z,96.59
2022-09-26T05:59:19.440Z,96.59
2022-09-26T06:00:19.454Z,96.49
2022-09-26T06:01:19.567Z,96.39
2022-09-26T06:02:20.997Z,96.49
2022-09-26T06:03:19.522Z,96.39
2022-09-26T06:04:19.563Z,96.39
2022-09-26T06:05:19.551Z,96.39
2022-09-26T06:06:19.545Z,96.29
2022-09-26T06:07:19.591Z,96.29
2022-09-26T06:08:19.368Z,96.29
2022-09-26T06:09:19.330Z,96.19
2022-09-26T06:10:19.336Z,96.29
2022-09-26T06:11:19.311Z,96.19
2022-09-26T06:12:19.331Z,96.08
2022-09-26T06:13:19.290Z,95.98
2022-09-26T06:14:19.290Z,95.98
2022-09-26T06:15:19.283Z,95.84
2022-09-26T06:16:19.338Z,95.94
2022-09-26T06:17:19.251Z,95.94
2022-09-26T06:18:19.235Z,95.84
2022-09-26T06:19:22.841Z,95.94
2022-09-26T06:20:19.227Z,95.94
2022-09-26T06:21:19.223Z,95.84
2022-09-26T06:22:19.223Z,95.94
2022-09-26T06:23:19.190Z,95.73
2022-09-26T06:24:19.187Z,95.84
2022-09-26T06:25:19.164Z,95.84
2022-09-26T06:26:19.151Z,95.84
2022-09-26T06:27:19.159Z,95.73
2022-09-26T06:28:19.139Z,95.63
2022-09-26T06:29:19.110Z,95.73
2022-09-26T06:30:19.151Z,95.63
2022-09-26T06:31:19.188Z,95.22
2022-09-26T06:32:19.155Z,95.12
2022-09-26T06:33:19.255Z,95.32
2022-09-26T06:34:19.179Z,95.28
2022-09-26T06:35:19.236Z,94.97
2022-09-26T06:36:19.184Z,94.97
2022-09-26T06:37:19.166Z,95.07
2022-09-26T06:38:19.190Z,94.67
2022-09-26T06:39:19.163Z,94.77
2022-09-26T06:40:19.185Z,94.56
2022-09-26T06:41:19.146Z,94.46
2022-09-26T06:42:19.212Z,94.56
2022-09-26T06:43:19.251Z,94.67
2022-09-26T06:44:19.183Z,94.52
2022-09-26T06:45:19.243Z,94.21
2022-09-26T06:46:19.056Z,93.91
2022-09-26T06:47:18.927Z,93.50
2022-09-26T06:48:23.693Z,93.60
2022-09-26T06:49:19.892Z,93.60
2022-09-26T06:50:18.892Z,94.01
2022-09-26T06:51:18.872Z,94.01
2022-09-26T06:52:18.907Z,93.70
2022-09-26T06:53:18.953Z,92.78
2022-09-26T06:54:18.846Z,92.88
2022-09-26T06:55:18.826Z,92.94
2022-09-26T06:56:18.826Z,92.23
2022-09-26T06:57:18.816Z,92.43
2022-09-26T06:58:18.803Z,92.54
2022-09-26T06:59:18.768Z,92.33
2022-09-26T07:00:18.780Z,92.02
2022-09-26T07:01:18.897Z,91.61
2022-09-26T07:02:18.782Z,92.02
2022-09-26T07:03:18.727Z,92.13
2022-09-26T07:04:18.739Z,92.08
2022-09-26T07:05:18.712Z,91.88
2022-09-26T07:06:18.751Z,91.27
2022-09-26T07:07:18.700Z,91.16
2022-09-26T07:08:18.717Z,90.55
2022-09-26T07:09:19.047Z,90.45
2022-09-26T07:10:18.675Z,90.35
2022-09-26T07:12:19.638Z,89.84
2022-09-26T07:13:18.652Z,89.84
2022-09-26T07:14:18.632Z,89.43
2022-09-26T07:15:18.629Z,89.43
2022-09-26T07:16:18.663Z,89.23
2022-09-26T07:17:18.575Z,89.12
2022-09-26T07:18:18.585Z,88.92
2022-09-26T07:19:18.550Z,88.92
2022-09-26T07:20:18.580Z,88.98
2022-09-26T07:21:18.524Z,88.88
2022-09-26T07:22:18.536Z,88.47
2022-09-26T07:23:18.516Z,88.78
2022-09-26T07:24:18.536Z,88.17
2022-09-26T07:25:18.496Z,88.17
2022-09-26T07:26:18.484Z,88.06
2022-09-26T07:27:18.476Z,87.92
2022-09-26T07:28:18.476Z,87.41
2022-09-26T07:29:18.459Z,87.41
2022-09-26T07:30:18.436Z,87.30
2022-09-26T07:31:18.551Z,86.59
2022-09-26T07:32:18.432Z,86.49
2022-09-26T07:33:18.409Z,86.69
2022-09-26T07:34:18.859Z,85.98
2022-09-26T07:35:18.392Z,85.57
2022-09-26T07:36:18.375Z,85.27
2022-09-26T07:37:18.357Z,85.68
2022-09-26T07:38:18.350Z,85.57
2022-09-26T07:39:18.333Z,85.37
2022-09-26T07:40:18.351Z,85.37
2022-09-26T07:41:18.316Z,85.16
2022-09-26T07:42:18.309Z,85.27
2022-09-26T07:43:20.634Z,84.86
2022-09-26T07:45:02.326Z,85.33
2022-09-26T07:45:29.382Z,86.24
2022-09-26T07:46:19.282Z,85.13
2022-09-26T07:47:18.248Z,85.33
2022-09-26T07:48:18.236Z,86.00
2022-09-26T07:49:18.208Z,84.20
2022-09-26T07:50:18.209Z,84.31
2022-09-26T07:51:18.241Z,84.27
2022-09-26T07:52:18.258Z,83.96
2022-09-26T07:53:18.300Z,83.80
2022-09-26T07:54:18.382Z,84.17
2022-09-26T07:55:18.329Z,84.27
2022-09-26T07:56:18.384Z,84.17
2022-09-26T07:57:18.410Z,83.15
2022-09-26T07:58:18.134Z,83.56
2022-09-26T07:59:18.157Z,83.76
2022-09-26T08:00:18.270Z,83.25
2022-09-26T08:01:18.118Z,83.45
2022-09-26T08:02:18.332Z,82.84
2022-09-26T08:03:18.121Z,83.04
2022-09-26T08:04:18.053Z,83.35
2022-09-26T08:05:18.030Z,83.76
2022-09-26T08:06:18.089Z,84.06
2022-09-26T08:07:18.041Z,84.27
2022-09-26T08:08:18.018Z,84.17
2022-09-26T08:09:17.989Z,83.76
2022-09-26T08:10:18.004Z,83.86
2022-09-26T08:11:18.109Z,84.31
2022-09-26T08:12:17.993Z,84.00
2022-09-26T08:13:17.962Z,84.27
2022-09-26T08:14:17.953Z,84.11
2022-09-26T08:15:17.925Z,83.80
2022-09-26T08:16:18.073Z,84.20
2022-09-26T08:17:17.935Z,84.00
2022-09-26T08:18:17.901Z,84.31
2022-09-26T08:19:17.921Z,84.61
2022-09-26T08:20:17.874Z,84.92
2022-09-26T08:21:17.926Z,84.78
2022-09-26T08:22:17.904Z,83.65
2022-09-26T08:23:17.861Z,84.17
2022-09-26T08:24:17.858Z,84.06
2022-09-26T08:25:17.817Z,84.37
2022-09-26T08:26:17.812Z,84.78
2022-09-26T08:27:18.052Z,84.78
2022-09-26T08:28:17.786Z,84.47
2022-09-26T08:29:17.762Z,84.37
2022-09-26T08:30:17.794Z,83.35
2022-09-26T08:31:17.845Z,83.56
2022-09-26T08:32:17.778Z,83.96
2022-09-26T08:33:17.734Z,83.86
2022-09-26T08:34:22.694Z,83.86
2022-09-26T08:35:18.695Z,83.96
2022-09-26T08:36:17.704Z,83.45
2022-09-26T08:37:17.681Z,84.37
2022-09-26T08:38:17.697Z,83.76
2022-09-26T08:39:17.661Z,83.65
2022-09-26T08:40:17.698Z,83.45
2022-09-26T08:41:17.626Z,83.45
2022-09-26T08:42:17.635Z,84.17
2022-09-26T08:43:17.670Z,83.76
2022-09-26T08:44:17.597Z,84.17
2022-09-26T08:45:17.597Z,84.06
2022-09-26T08:46:17.617Z,83.65
2022-09-26T08:47:17.591Z,83.76
2022-09-26T08:48:17.597Z,83.56
2022-09-26T08:49:17.545Z,83.45
2022-09-26T08:50:17.533Z,83.15
2022-09-26T08:51:17.534Z,82.84
2022-09-26T08:52:17.510Z,83.45
2022-09-26T08:53:17.539Z,83.15
2022-09-26T08:54:17.506Z,83.35
2022-09-26T08:55:17.485Z,82.94
2022-09-26T08:56:17.499Z,82.74
2022-09-26T08:57:17.474Z,83.76
2022-09-26T08:58:17.447Z,83.04
2022-09-26T08:59:17.437Z,83.04
2022-09-26T09:00:17.428Z,83.76
2022-09-26T09:01:17.454Z,83.25
2022-09-26T09:02:17.624Z,83.45
2022-09-26T09:03:17.703Z,82.94
2022-09-26T09:04:17.399Z,83.45
2022-09-26T09:05:17.382Z,84.06
2022-09-26T09:06:17.361Z,83.56
2022-09-26T09:07:17.387Z,83.35
2022-09-26T09:08:17.326Z,83.86
2022-09-26T09:09:17.338Z,83.86
2022-09-26T09:10:17.314Z,83.25
2022-09-26T09:11:17.314Z,83.15
2022-09-26T09:12:21.746Z,83.04
2022-09-26T09:13:18.294Z,83.04
2022-09-26T09:14:17.432Z,82.84
2022-09-26T09:15:26.239Z,83.04
2022-09-26T09:16:18.271Z,83.04
2022-09-26T09:17:17.268Z,82.74
2022-09-26T09:18:17.233Z,82.54
2022-09-26T09:19:17.227Z,82.94
2022-09-26T09:20:17.239Z,83.25
2022-09-26T09:21:17.199Z,83.25
2022-09-26T09:22:17.224Z,83.15
2022-09-26T09:23:17.170Z,83.45
2022-09-26T09:24:17.161Z,83.90
2022-09-26T09:25:17.161Z,84.47
2022-09-26T09:28:18.119Z,85.60
2022-09-26T09:29:19.110Z,85.02
2022-09-26T09:30:17.686Z,86.24
2022-09-26T09:31:17.135Z,86.76
2022-09-26T09:32:17.069Z,86.65
2022-09-26T09:33:17.066Z,86.45
2022-09-26T09:34:17.047Z,86.55
2022-09-26T09:35:17.150Z,87.16
2022-09-26T09:36:17.019Z,87.16
2022-09-26T09:37:17.019Z,87.06
2022-09-26T09:38:17.000Z,87.00
2022-09-26T09:39:17.010Z,86.59
2022-09-26T09:40:17.095Z,87.30
2022-09-26T09:41:17.012Z,88.12
2022-09-26T09:42:16.978Z,87.30
2022-09-26T09:43:17.018Z,86.59
2022-09-26T09:44:17.227Z,86.69
2022-09-26T09:45:16.935Z,85.98
2022-09-26T09:46:16.957Z,86.49
2022-09-26T09:47:16.920Z,86.49
2022-09-26T09:48:16.882Z,86.59
2022-09-26T09:49:16.889Z,87.00
2022-09-26T09:50:16.912Z,88.02
2022-09-26T09:51:16.862Z,88.02
2022-09-26T09:52:16.853Z,87.30
2022-09-26T09:53:16.830Z,87.41
2022-09-26T09:54:16.825Z,87.82
2022-09-26T09:55:16.851Z,88.32
2022-09-26T09:56:16.812Z,88.12
2022-09-26T09:57:16.800Z,89.20
2022-09-26T09:58:16.798Z,89.30
2022-09-26T09:59:16.779Z,89.00
2022-09-26T10:00:16.839Z,89.40
2022-09-26T10:01:16.778Z,88.79
2022-09-26T10:02:16.753Z,89.14
2022-09-26T10:03:16.761Z,89.45
2022-09-26T10:04:16.723Z,89.75
2022-09-26T10:05:16.874Z,89.45
2022-09-26T10:06:44.578Z,89.75
2022-09-26T10:07:17.683Z,89.75
2022-09-26T10:08:16.717Z,90.41
2022-09-26T10:09:38.963Z,91.22
2022-09-26T10:10:17.640Z,91.22
2022-09-26T10:11:16.754Z,90.61
2022-09-26T10:12:16.777Z,91.53
2022-09-26T10:13:16.770Z,92.24
2022-09-26T10:14:16.706Z,92.76
2022-09-26T10:15:16.739Z,93.06
2022-09-26T10:16:16.880Z,91.83
2022-09-26T10:17:16.681Z,92.29
2022-09-26T10:18:25.750Z,92.59
2022-09-26T10:19:17.541Z,92.80
2022-09-26T10:20:16.588Z,92.90
2022-09-26T10:21:16.576Z,93.21
2022-09-26T10:22:16.747Z,93.51
2022-09-26T10:23:16.506Z,93.41
2022-09-26T10:24:16.485Z,93.10
2022-09-26T10:25:16.530Z,93.86
2022-09-26T10:26:16.453Z,94.64
2022-09-26T10:27:16.481Z,94.53
2022-09-26T10:28:16.442Z,95.15
2022-09-26T10:29:16.462Z,95.45
2022-09-26T10:30:16.413Z,95.25
2022-09-26T10:31:16.466Z,95.15
2022-09-26T10:32:16.414Z,95.96
2022-09-26T10:33:16.393Z,95.65
2022-09-26T10:34:16.374Z,96.06
2022-09-26T10:35:19.590Z,96.17
2022-09-26T10:36:16.349Z,96.17
2022-09-26T10:37:16.346Z,96.98
2022-09-26T10:38:16.445Z,96.72
2022-09-26T10:39:16.327Z,96.78
2022-09-26T10:40:16.434Z,96.78
2022-09-26T10:41:16.309Z,96.78
2022-09-26T10:42:16.273Z,96.58
2022-09-26T10:43:16.305Z,96.68
2022-09-26T10:44:16.265Z,96.47
2022-09-26T10:45:16.274Z,97.60
2022-09-26T10:46:16.259Z,98.11
2022-09-26T10:47:16.238Z,98.41
2022-09-26T10:48:16.216Z,98.41
2022-09-26T10:49:16.230Z,97.19
2022-09-26T10:50:16.194Z,97.49
2022-09-26T10:51:16.189Z,97.80
2022-09-26T10:52:18.615Z,98.31
2022-09-26T10:53:16.198Z,98.31
2022-09-26T10:54:16.376Z,97.29
2022-09-26T10:55:16.144Z,97.60
2022-09-26T10:56:16.152Z,97.60
2022-09-26T10:57:16.116Z,98.00
2022-09-26T10:58:16.104Z,98.41
2022-09-26T10:59:16.134Z,98.72
2022-09-26T11:00:16.084Z,98.61
2022-09-26T11:01:16.096Z,98.31
2022-09-26T11:02:16.068Z,98.52
2022-09-26T11:03:16.118Z,98.52
2022-09-26T11:04:16.185Z,98.31
2022-09-26T11:05:16.035Z,98.00
2022-09-26T11:06:19.356Z,98.31
2022-09-26T11:07:17.339Z,98.61
2022-09-26T11:08:15.988Z,98.72
2022-09-26T11:09:15.995Z,98.93
2022-09-26T11:10:15.988Z,99.43
2022-09-26T11:11:15.967Z,98.98
2022-09-26T11:12:16.291Z,98.47
2022-09-26T11:13:15.948Z,98.06
2022-09-26T11:14:16.033Z,98.36
2022-09-26T11:15:15.946Z,98.77
2022-09-26T11:16:15.961Z,98.36
2022-09-26T11:17:15.902Z,98.47
2022-09-26T11:18:15.879Z,98.57
2022-09-26T11:19:16.078Z,97.96
2022-09-26T11:20:15.866Z,97.45
2022-09-26T11:21:28.372Z,97.50
2022-09-26T11:22:16.825Z,98.11
2022-09-26T11:23:15.847Z,98.11
2022-09-26T11:24:15.993Z,97.61
2022-09-26T11:25:15.832Z,97.20
2022-09-26T11:26:15.800Z,97.71
2022-09-26T11:27:15.779Z,98.02
2022-09-26T11:28:15.772Z,97.09
2022-09-26T11:29:15.817Z,96.79
2022-09-26T11:30:15.768Z,96.59
2022-09-26T11:31:15.793Z,95.57
2022-09-26T11:32:15.724Z,95.87
2022-09-26T11:33:15.748Z,95.87
2022-09-26T11:34:15.868Z,95.97
2022-09-26T11:35:15.702Z,95.97
2022-09-26T11:36:15.688Z,96.75
2022-09-26T11:37:15.809Z,95.42
2022-09-26T11:38:15.648Z,95.12
2022-09-26T11:39:15.816Z,95.42
2022-09-26T11:40:15.723Z,95.42
2022-09-26T11:41:15.640Z,95.73
2022-09-26T11:42:15.613Z,95.52
2022-09-26T11:43:15.600Z,95.73
2022-09-26T11:44:15.770Z,95.62
2022-09-26T11:45:15.609Z,94.71
2022-09-26T11:46:15.644Z,95.42
2022-09-26T11:47:15.561Z,94.71
2022-09-26T11:48:15.560Z,94.09
2022-09-26T11:49:15.553Z,92.97
2022-09-26T11:50:15.536Z,94.30
2022-09-26T11:51:15.532Z,94.50
2022-09-26T11:52:15.500Z,94.30
2022-09-26T11:53:15.536Z,94.40
2022-09-26T11:54:15.632Z,94.09
2022-09-26T11:55:15.499Z,94.30
2022-09-26T11:56:15.449Z,94.50
2022-09-26T11:57:15.465Z,94.40
2022-09-26T11:58:15.440Z,95.21
2022-09-26T11:59:15.433Z,95.73
2022-09-26T12:00:15.425Z,94.91
2022-09-26T12:01:15.405Z,94.91
2022-09-26T12:02:15.445Z,95.42
2022-09-26T12:03:15.540Z,95.52
2022-09-26T12:04:15.685Z,95.83
2022-09-26T12:05:15.405Z,95.93
2022-09-26T12:06:15.359Z,95.93
2022-09-26T12:07:15.358Z,95.83
2022-09-26T12:08:15.333Z,96.03
2022-09-26T12:09:15.317Z,95.73
2022-09-26T12:10:15.301Z,96.23
2022-09-26T12:11:15.338Z,96.18
2022-09-26T12:12:15.301Z,96.18
2022-09-26T12:13:15.292Z,96.18
2022-09-26T12:14:15.341Z,95.67
2022-09-26T12:15:15.267Z,96.69
2022-09-26T12:16:15.299Z,95.67
2022-09-26T12:17:15.241Z,96.18
2022-09-26T12:18:15.221Z,95.77
2022-09-26T12:19:16.674Z,96.18
2022-09-26T12:20:15.185Z,95.97
2022-09-26T12:21:15.213Z,95.97
2022-09-26T12:22:15.162Z,96.18
2022-09-26T12:23:15.157Z,96.59
2022-09-26T12:24:15.277Z,96.48
2022-09-26T12:25:19.903Z,96.08
2022-09-26T12:26:16.151Z,95.67
2022-09-26T12:27:15.118Z,95.93
2022-09-26T12:28:15.094Z,96.14
2022-09-26T12:29:15.093Z,95.93
2022-09-26T12:30:15.090Z,95.32
2022-09-26T12:31:19.514Z,95.12
2022-09-26T12:32:15.104Z,95.32
2022-09-26T12:33:15.160Z,94.30
2022-09-26T12:34:15.289Z,95.42
2022-09-26T12:35:15.165Z,92.97
2022-09-26T12:36:15.210Z,93.95
2022-09-26T12:37:15.268Z,94.15
2022-09-26T12:38:15.277Z,94.76
2022-09-26T12:39:15.523Z,95.07
2022-09-26T12:40:15.350Z,95.03
2022-09-26T12:41:14.965Z,95.03
2022-09-26T12:42:14.949Z,93.70
2022-09-26T12:43:15.010Z,93.70
2022-09-26T12:44:14.914Z,92.38
2022-09-26T12:45:14.917Z,92.89
2022-09-26T12:46:14.939Z,93.25
2022-09-26T12:47:14.887Z,91.93
2022-09-26T12:48:14.922Z,92.64
2022-09-26T12:49:15.009Z,91.22
2022-09-26T12:50:14.846Z,90.60
2022-09-26T12:51:14.846Z,91.01
2022-09-26T12:52:14.850Z,90.25
2022-09-26T12:53:14.877Z,88.77
2022-09-26T12:54:14.806Z,88.87
2022-09-26T12:55:14.810Z,89.07